Main page
METAR-TAF:

METAR-TAF

Airports :

Bonriki International Airport

Tarawa, Kiribati

latitude: 01-21N, longitude: 172-55E, elevation: 2 m

Current weather observation

The report was made 36 minutes ago, at 04:00 UTC
Wind 8 kt from the East
Temperature 30°C
Humidity 75%
Pressure 1007 hPa
Visibility 10 km or more
Scattered clouds at a height of 2000 ft

METAR: NGTA 160400Z 08008KT 9999 SCT020 30/25 Q1007

Time: 18:36 (04:36 UTC)

Forecast

The report was made 5 hours and 32 minutes ago, at 23:04 UTC
Forecast valid from 16 at 00 UTC to 16 at 24 UTC
Wind 7 kt from the East
Visibility 10 km or more
Scattered clouds at a height of 1800 ft
Broken clouds at a height of 10000 ft

TAF: NGTA 152304Z 1600/1624 09007KT 9999 SCT018 BKN100

Weather observations and forecasts of more than 4000 airports (METAR and TAF reports).

The available stations are represented by yellow and red dots on the map.

Hover mouse over dot to see the name of the station.

Then click to see weather observations and forecasts.

To change the map : click on the green buttons with a black cross to zoom in, on the green button with a dash to zoom out, or on the green arrows for adjacent maps.


METAR-TAF: